Time;durP1;ratioP1;P1;durP2;ratioP2;P2;SDS_P1;SDS_P2;PMS_P1;PMS_P2;Temp;Humidity;BMP_temperature;BMP_pressure;BME280_temperature;BME280_humidity;BME280_pressure;Samples;Min_cycle;Max_cycle;Signal;HPM_P1;HPM_P2
2022/09/20 06:02:37;;;;;;;;;;;;;;;12.13;100.00;100270.13;5013673;23;19938;-90
2022/09/20 06:05:08;;;;;;;;;;;;;;;12.15;100.00;100276.25;4994804;28;19926;-90
2022/09/20 06:07:56;;;;;;;;;;;;;;;12.15;100.00;100277.09;4991785;28;19976;-87
2022/09/20 06:10:30;;;;;;;;;;;;;;;12.17;100.00;100274.38;4978192;28;19926;-92
2022/09/20 06:13:01;;;;;;;;;;;;;;;12.17;100.00;100277.91;4995441;28;19926;-82
2022/09/20 06:15:45;;;;;;;;;;;;;;;12.19;100.00;100277.84;4994506;28;20388;-90
2022/09/20 06:18:22;;;;;;;;;;;;;;;12.18;100.00;100276.97;4994580;28;19922;-90
2022/09/20 06:20:58;;;;;;;;;;;;;;;12.22;100.00;100282.16;4995530;28;19929;-91
2022/09/20 06:23:24;;;;;;;;;;;;;;;12.23;100.00;100281.22;4994682;28;19979;-88
2022/09/20 06:25:56;;;;;;;;;;;;;;;12.23;100.00;100281.22;4993780;28;20050;-90
2022/09/20 06:28:41;;;;;;;;;;;;;;;12.24;100.00;100285.59;4995778;28;19918;-91
2022/09/20 06:31:07;;;;;;;;;;;;;;;12.25;100.00;100285.53;4994469;28;20054;-90
2022/09/20 06:33:39;;;;;;;;;;;;;;;12.26;100.00;100278.44;4994286;28;19928;-91
2022/09/20 06:41:35;;;;;;;;;;;;;;;12.27;100.00;100266.88;4993359;28;19969;-89
2022/09/20 06:44:02;;;;;;;;;;;;;;;12.30;100.00;100269.41;4994693;28;19930;-86
2022/09/20 06:46:32;;;;;;;;;;;;;;;12.30;100.00;100280.91;4989420;28;19930;-90
2022/09/20 06:48:57;;;;;;;;;;;;;;;11.26;100.00;100292.09;5007629;28;19922;-89
2022/09/20 06:51:24;;;;;;;;;;;;;;;10.29;100.00;100290.19;4991438;28;19921;-88
2022/09/20 06:53:50;;;;;;;;;;;;;;;9.83;100.00;100299.66;4993098;28;19930;-92
2022/09/20 06:56:18;;;;;;;;;;;;;;;9.63;100.00;100292.31;4992234;28;20292;-93
2022/09/20 06:58:43;;;;;;;;;;;;;;;9.38;100.00;100290.44;4993108;28;20424;-88
2022/09/20 07:01:08;;;;;;;;;;;;;;;9.26;100.00;100296.06;4992991;28;20044;-86
2022/09/20 07:03:37;;;;;;;;;;;;;;;9.03;100.00;100291.44;4990100;28;20316;-87
2022/09/20 07:06:03;;;;;;;;;;;;;;;8.95;100.00;100293.44;4991703;28;19922;-90
2022/09/20 07:08:28;;;;;;;;;;;;;;;8.71;100.00;100294.09;4992373;28;19921;-87
2022/09/20 07:10:53;;;;;;;;;;;;;;;8.79;100.00;100293.88;4989873;28;20403;-87
2022/09/20 07:13:19;;;;;;;;;;;;;;;8.64;100.00;100294.28;4991767;28;20012;-88
2022/09/20 07:15:44;;;;;;;;;;;;;;;8.48;100.00;100288.53;4990245;28;20403;-88
2022/09/20 07:18:10;;;;;;;;;;;;;;;8.42;100.00;100293.94;4993007;28;19933;-86
2022/09/20 07:20:35;;;;;;;;;;;;;;;8.28;100.00;100302.22;4992604;28;19938;-88
2022/09/20 07:23:01;;;;;;;;;;;;;;;8.26;100.00;100306.66;4992218;28;19937;-87
2022/09/20 07:25:26;;;;;;;;;;;;;;;8.21;100.00;100296.22;4991382;28;19922;-87
2022/09/20 07:27:52;;;;;;;;;;;;;;;8.05;100.00;100311.56;4991090;28;19932;-88
2022/09/20 07:30:18;;;;;;;;;;;;;;;7.99;100.00;100301.16;4992089;28;19975;-83
2022/09/20 07:32:43;;;;;;;;;;;;;;;7.97;100.00;100303.81;4990669;28;20004;-87
2022/09/20 07:35:09;;;;;;;;;;;;;;;7.99;100.00;100307.31;4990372;28;20445;-85
2022/09/20 07:37:35;;;;;;;;;;;;;;;7.96;100.00;100307.41;4991272;28;19929;-87
2022/09/20 07:40:01;;;;;;;;;;;;;;;7.86;100.00;100312.91;4990381;28;19922;-88
2022/09/20 07:42:29;;;;;;;;;;;;;;;7.77;100.00;100312.22;4993935;28;20254;-90
2022/09/20 07:44:54;;;;;;;;;;;;;;;7.72;100.00;100313.22;4992698;28;19928;-87
2022/09/20 07:47:20;;;;;;;;;;;;;;;7.71;100.00;100311.50;4992228;28;19917;-85
2022/09/20 07:49:47;;;;;;;;;;;;;;;7.58;100.00;100310.91;4992883;28;19918;-87
2022/09/20 07:52:13;;;;;;;;;;;;;;;7.50;100.00;100303.16;4992626;28;19929;-88
2022/09/20 07:54:38;;;;;;;;;;;;;;;7.43;100.00;100302.41;4991149;28;19928;-87
2022/09/20 07:57:04;;;;;;;;;;;;;;;7.44;100.00;100304.16;4991437;28;19925;-88
2022/09/20 07:59:29;;;;;;;;;;;;;;;7.37;100.00;100313.13;4991261;28;19976;-90
2022/09/20 08:01:56;;;;;;;;;;;;;;;7.34;100.00;100314.94;4990301;28;19925;-89
2022/09/20 08:04:21;;;;;;;;;;;;;;;7.21;100.00;100323.13;4991135;28;20024;-89
2022/09/20 08:06:46;;;;;;;;;;;;;;;7.17;100.00;100325.84;4993181;28;20000;-90
2022/09/20 08:09:12;;;;;;;;;;;;;;;7.14;100.00;100320.63;4992909;28;19917;-90
2022/09/20 08:11:38;;;;;;;;;;;;;;;7.15;100.00;100332.88;4994080;28;20407;-89
2022/09/20 08:14:04;;;;;;;;;;;;;;;7.12;100.00;100327.72;4992348;28;20419;-90
2022/09/20 08:16:30;;;;;;;;;;;;;;;7.01;100.00;100328.78;4991258;28;19922;-90
2022/09/20 08:18:59;;;;;;;;;;;;;;;6.98;100.00;100326.19;4992312;28;19933;-88
2022/09/20 08:21:25;;;;;;;;;;;;;;;7.04;100.00;100320.81;5008584;28;19930;-87
2022/09/20 08:23:51;;;;;;;;;;;;;;;6.85;100.00;100324.69;5010369;28;19990;-88
2022/09/20 08:26:19;;;;;;;;;;;;;;;6.79;100.00;100327.44;4992949;28;20292;-87
2022/09/20 08:28:45;;;;;;;;;;;;;;;6.89;100.00;100331.63;5009995;28;20000;-86
2022/09/20 08:31:14;;;;;;;;;;;;;;;6.72;100.00;100337.22;4992006;28;19921;-85
2022/09/20 08:33:40;;;;;;;;;;;;;;;6.73;100.00;100331.94;4994244;28;19922;-92
2022/09/20 08:36:06;;;;;;;;;;;;;;;6.76;100.00;100330.13;4992443;28;20331;-87
2022/09/20 08:38:32;;;;;;;;;;;;;;;6.67;100.00;100332.06;5000969;28;20059;-89
2022/09/20 08:41:09;;;;;;;;;;;;;;;6.55;100.00;100333.13;4994104;28;19972;-90
2022/09/20 08:43:36;;;;;;;;;;;;;;;6.58;100.00;100337.47;4986618;28;19938;-89
2022/09/20 08:46:03;;;;;;;;;;;;;;;6.63;100.00;100330.34;4988764;28;19944;-90
2022/09/20 08:48:34;;;;;;;;;;;;;;;6.50;100.00;100331.47;4992830;28;20011;-92
2022/09/20 08:51:01;;;;;;;;;;;;;;;6.46;100.00;100338.56;5000696;28;19961;-87
2022/09/20 08:53:28;;;;;;;;;;;;;;;6.53;100.00;100328.78;5004481;28;19922;-88
2022/09/20 08:55:56;;;;;;;;;;;;;;;6.44;100.00;100326.31;5002737;28;19972;-89
2022/09/20 08:58:21;;;;;;;;;;;;;;;6.33;100.00;100331.75;4993012;28;20341;-89
2022/09/20 09:00:46;;;;;;;;;;;;;;;6.31;100.00;100328.28;4990395;28;19917;-89
2022/09/20 09:03:13;;;;;;;;;;;;;;;6.38;100.00;100334.31;4991521;28;19921;-88
2022/09/20 09:05:49;;;;;;;;;;;;;;;6.32;100.00;100333.53;4989929;28;19960;-88
2022/09/20 09:08:18;;;;;;;;;;;;;;;6.32;100.00;100332.66;5005972;28;21322;-93
2022/09/20 09:10:52;;;;;;;;;;;;;;;6.30;100.00;100330.06;4991557;28;19922;-88
2022/09/20 09:13:27;;;;;;;;;;;;;;;6.21;100.00;100337.22;4991294;28;20385;-90
2022/09/20 09:16:00;;;;;;;;;;;;;;;6.26;100.00;100333.63;4991357;28;20455;-89
2022/09/20 09:18:29;;;;;;;;;;;;;;;6.25;100.00;100323.97;4989064;28;19929;-90
2022/09/20 09:20:57;;;;;;;;;;;;;;;6.25;100.00;100339.78;4992170;28;19961;-89
2022/09/20 09:23:25;;;;;;;;;;;;;;;6.13;100.00;100329.47;4989203;28;19929;-87
2022/09/20 09:25:51;;;;;;;;;;;;;;;6.23;100.00;100327.56;4988494;28;19960;-88
2022/09/20 09:28:19;;;;;;;;;;;;;;;6.19;100.00;100332.00;5007489;28;19972;-88
2022/09/20 09:30:48;;;;;;;;;;;;;;;6.17;100.00;100331.13;4989406;28;19937;-88
2022/09/20 09:33:15;;;;;;;;;;;;;;;6.13;100.00;100326.84;4991386;28;19924;-89
2022/09/20 09:35:40;;;;;;;;;;;;;;;6.08;100.00;100331.28;4991325;28;20792;-88
2022/09/20 09:38:20;;;;;;;;;;;;;;;6.11;100.00;100332.13;4991692;28;20016;-84
2022/09/20 09:40:50;;;;;;;;;;;;;;;5.99;100.00;100325.28;5005851;28;20384;-88
2022/09/20 09:43:22;;;;;;;;;;;;;;;6.02;100.00;100323.50;4989119;28;19925;-87
2022/09/20 09:45:48;;;;;;;;;;;;;;;6.00;100.00;100328.78;4989835;28;19922;-89
2022/09/20 09:48:26;;;;;;;;;;;;;;;8.08;100.00;100322.06;4990256;28;20276;-88
2022/09/20 09:51:14;;;;;;;;;;;;;;;6.85;100.00;100327.34;4988734;28;19929;-88
2022/09/20 09:53:40;;;;;;;;;;;;;;;6.32;100.00;100323.00;4992373;28;20041;-87
2022/09/20 09:56:35;;;;;;;;;;;;;;;6.14;100.00;100328.56;4992443;28;20008;-86
2022/09/20 09:59:13;;;;;;;;;;;;;;;6.13;100.00;100318.94;4973069;28;19965;-90
2022/09/20 10:01:48;;;;;;;;;;;;;;;6.04;100.00;100324.34;4990854;28;19921;-89
2022/09/20 10:04:13;;;;;;;;;;;;;;;6.02;100.00;100326.13;4991714;28;19932;-90
2022/09/20 10:06:53;;;;;;;;;;;;;;;5.97;100.00;100329.69;4991012;28;19922;-89
2022/09/20 10:09:41;;;;;;;;;;;;;;;5.93;100.00;100320.06;4990199;28;19925;-88
2022/09/20 10:12:16;;;;;;;;;;;;;;;5.93;100.00;100327.97;4989010;28;19928;-87
2022/09/20 10:15:00;;;;;;;;;;;;;;;5.87;100.00;100327.19;4988249;28;20050;-90
2022/09/20 10:17:56;;;;;;;;;;;;;;;5.72;100.00;100323.88;4990910;28;19968;-89
2022/09/20 10:20:39;;;;;;;;;;;;;;;5.80;100.00;100329.03;4964165;28;19919;-89
2022/09/20 10:23:23;;;;;;;;;;;;;;;5.77;100.00;100315.94;4990233;28;19981;-88
2022/09/20 10:25:56;;;;;;;;;;;;;;;5.75;100.00;100315.97;4990599;28;19922;-91
2022/09/20 10:28:47;;;;;;;;;;;;;;;5.73;100.00;100319.53;5007025;28;20317;-91
2022/09/20 10:31:21;;;;;;;;;;;;;;;5.67;100.00;100319.59;4989671;28;19925;-89
2022/09/20 10:34:04;;;;;;;;;;;;;;;5.70;100.00;100314.31;5006756;28;19918;-90
2022/09/20 10:36:50;;;;;;;;;;;;;;;5.63;100.00;100314.38;4974454;28;19918;-89
2022/09/20 10:39:25;;;;;;;;;;;;;;;5.64;100.00;100324.00;4991606;28;19929;-90
2022/09/20 10:44:49;;;;;;;;;;;;;;;5.49;100.00;100323.34;4991084;28;20388;-90
2022/09/20 10:47:20;;;;;;;;;;;;;;;5.53;100.00;100319.78;4989939;28;20035;-89
2022/09/20 10:50:15;;;;;;;;;;;;;;;5.53;100.00;100319.78;5009479;28;19918;-89
2022/09/20 10:52:55;;;;;;;;;;;;;;;5.48;100.00;100311.97;4967398;28;20047;-88
2022/09/20 10:55:24;;;;;;;;;;;;;;;5.58;100.00;100307.44;4995272;28;19922;-89
2022/09/20 10:57:49;;;;;;;;;;;;;;;5.41;100.00;100312.94;4994037;28;19918;-89
2022/09/20 11:00:22;;;;;;;;;;;;;;;5.45;100.00;100304.13;4993923;28;19928;-88
2022/09/20 11:02:54;;;;;;;;;;;;;;;5.48;100.00;100309.34;5009559;28;19925;-89
2022/09/20 11:05:19;;;;;;;;;;;;;;;5.38;100.00;100307.72;4993994;28;19929;-91
2022/09/20 11:08:00;;;;;;;;;;;;;;;5.40;100.00;100305.94;4993791;28;19918;-90
2022/09/20 11:10:43;;;;;;;;;;;;;;;5.35;100.00;100313.88;4994005;28;19918;-90
2022/09/20 11:13:21;;;;;;;;;;;;;;;5.35;100.00;100313.03;4993572;28;20000;-88
2022/09/20 11:15:58;;;;;;;;;;;;;;;5.42;100.00;100323.41;4992611;28;19952;-89
2022/09/20 11:18:31;;;;;;;;;;;;;;;5.45;100.00;100310.22;4993645;28;20004;-91
2022/09/20 11:21:18;;;;;;;;;;;;;;;5.31;100.00;100313.94;4992755;28;19922;-89
2022/09/20 11:23:46;;;;;;;;;;;;;;;5.23;100.00;100320.19;4993587;28;19917;-95
2022/09/20 11:26:15;;;;;;;;;;;;;;;5.28;100.00;100310.47;4993431;28;19928;-91
2022/09/20 11:28:52;;;;;;;;;;;;;;;5.27;100.00;100311.34;4994406;28;20012;-89
2022/09/20 11:31:25;;;;;;;;;;;;;;;5.31;100.00;100311.31;4992029;28;19917;-89
2022/09/20 11:34:13;;;;;;;;;;;;;;;5.21;100.00;100316.69;4993015;28;19928;-90
2022/09/20 11:36:44;;;;;;;;;;;;;;;5.17;100.00;100311.47;5008832;28;19918;-88
2022/09/20 11:39:48;;;;;;;;;;;;;;;5.22;100.00;100314.94;5008933;28;19929;-92
2022/09/20 11:42:42;;;;;;;;;;;;;;;5.15;100.00;100311.50;4956306;28;20554;-88
2022/09/20 11:45:10;;;;;;;;;;;;;;;5.22;100.00;100318.44;4950646;28;19965;-90
2022/09/20 11:47:45;;;;;;;;;;;;;;;5.19;100.00;100315.84;4987419;28;19913;-90
2022/09/20 11:50:31;;;;;;;;;;;;;;;5.14;100.00;100322.91;5008642;28;20416;-89
2022/09/20 11:53:10;;;;;;;;;;;;;;;5.07;100.00;100316.88;5009073;28;19921;-89
2022/09/20 11:55:49;;;;;;;;;;;;;;;5.08;100.00;100315.97;4994370;28;19921;-91
2022/09/20 11:58:20;;;;;;;;;;;;;;;5.07;100.00;100315.97;4993976;28;20276;-90
2022/09/20 12:00:47;;;;;;;;;;;;;;;5.06;100.00;100317.75;4992096;28;19957;-90
2022/09/20 12:03:24;;;;;;;;;;;;;;;5.05;100.00;100310.75;4994005;28;19933;-87
2022/09/20 12:05:57;;;;;;;;;;;;;;;5.13;100.00;100310.66;4993270;28;19918;-89
2022/09/20 12:08:49;;;;;;;;;;;;;;;5.00;100.00;100309.94;4993532;28;19922;-89
2022/09/20 12:11:15;;;;;;;;;;;;;;;5.04;100.00;100316.00;4992622;28;19968;-89
2022/09/20 12:13:41;;;;;;;;;;;;;;;5.00;100.00;100320.44;4993075;28;19917;-90
2022/09/20 12:16:11;;;;;;;;;;;;;;;4.91;100.00;100316.19;4991329;28;19921;-89
2022/09/20 12:19:00;;;;;;;;;;;;;;;4.95;100.00;100324.03;4993851;28;19917;-89
2022/09/20 12:21:26;;;;;;;;;;;;;;;5.07;100.00;100315.97;4992268;28;19918;-90
2022/09/20 12:23:51;;;;;;;;;;;;;;;5.04;100.00;100310.75;4991701;28;19918;-90
2022/09/20 12:26:30;;;;;;;;;;;;;;;5.06;100.00;100317.75;4993493;28;19965;-88
2022/09/20 12:29:01;;;;;;;;;;;;;;;5.08;100.00;100312.47;5008411;28;19946;-88
2022/09/20 12:31:30;;;;;;;;;;;;;;;4.96;100.00;100309.97;4992052;28;20282;-90
2022/09/20 12:33:56;;;;;;;;;;;;;;;4.94;100.00;100306.50;4993488;28;20054;-88
2022/09/20 12:36:23;;;;;;;;;;;;;;;4.93;100.00;100321.41;4993525;28;19918;-88
2022/09/20 12:38:52;;;;;;;;;;;;;;;4.89;100.00;100317.06;4992222;28;19940;-88
2022/09/20 12:41:18;;;;;;;;;;;;;;;4.87;100.00;100309.22;4993373;28;19921;-89
2022/09/20 12:43:58;;;;;;;;;;;;;;;4.93;100.00;100310.91;4993345;28;20362;-89
2022/09/20 12:46:28;;;;;;;;;;;;;;;4.84;100.00;100309.25;4992275;28;19928;-89
2022/09/20 12:52:48;;;;;;;;;;;;;;;4.84;100.00;100301.38;4992398;28;19921;-89
2022/09/20 12:54:53;;;;;;;;;;;;;;;4.86;100.00;100311.84;4993009;28;20285;-90
2022/09/20 12:57:27;;;;;;;;;;;;;;;4.78;100.00;100311.94;4992820;28;19979;-88
2022/09/20 12:59:57;;;;;;;;;;;;;;;4.86;100.00;100298.72;4993169;28;20385;-87
2022/09/20 13:02:41;;;;;;;;;;;;;;;4.78;100.00;100306.69;4991825;28;19918;-87
2022/09/20 13:05:36;;;;;;;;;;;;;;;4.77;100.00;100304.06;4992994;28;20293;-88
2022/09/20 13:08:09;;;;;;;;;;;;;;;4.78;100.00;100297.94;4992248;28;19918;-87
2022/09/20 13:10:36;;;;;;;;;;;;;;;4.86;100.00;100294.31;4992847;28;19917;-89
2022/09/20 13:13:12;;;;;;;;;;;;;;;4.74;100.00;100299.75;4992656;28;19918;-87
2022/09/20 13:15:39;;;;;;;;;;;;;;;4.85;100.00;100292.59;4991115;28;19922;-88
2022/09/20 13:18:04;;;;;;;;;;;;;;;4.71;100.00;100295.38;4992638;28;19922;-90
2022/09/20 13:20:33;;;;;;;;;;;;;;;4.68;100.00;100299.78;4992707;28;19925;-89
2022/09/20 13:22:59;;;;;;;;;;;;;;;4.83;100.00;100296.13;4992185;28;19928;-89
2022/09/20 13:25:24;;;;;;;;;;;;;;;4.79;100.00;100303.19;4992561;28;19926;-89
2022/09/20 13:28:04;;;;;;;;;;;;;;;4.75;100.00;100303.22;4991576;28;19909;-89
2022/09/20 13:30:31;;;;;;;;;;;;;;;4.67;100.00;100305.91;4990014;28;19944;-89
2022/09/20 13:33:12;;;;;;;;;;;;;;;4.72;100.00;100298.88;4991862;28;19915;-88
2022/09/20 13:35:39;;;;;;;;;;;;;;;4.65;100.00;100290.19;4991279;28;19965;-88
2022/09/20 13:38:06;;;;;;;;;;;;;;;4.70;100.00;100298.00;4992517;28;19917;-87
2022/09/20 13:40:41;;;;;;;;;;;;;;;4.70;100.00;100300.63;4992589;28;19921;-88
2022/09/20 13:43:20;;;;;;;;;;;;;;;4.67;100.00;100296.28;4987256;28;20336;-89
2022/09/20 13:45:46;;;;;;;;;;;;;;;4.66;100.00;100296.28;4986800;28;20044;-88
2022/09/20 13:48:11;;;;;;;;;;;;;;;4.63;100.00;100297.22;4991355;28;20009;-88
2022/09/20 13:50:38;;;;;;;;;;;;;;;4.67;100.00;100292.78;4991337;28;20364;-89
2022/09/20 13:53:14;;;;;;;;;;;;;;;4.69;100.00;100296.25;4991548;28;19926;-89
2022/09/20 13:55:40;;;;;;;;;;;;;;;4.62;100.00;100286.72;4992028;28;19960;-90
2022/09/20 13:58:26;;;;;;;;;;;;;;;4.64;100.00;100287.56;4988056;28;19964;-87
2022/09/20 14:00:59;;;;;;;;;;;;;;;4.68;100.00;100284.91;4990295;28;19965;-90
2022/09/20 14:03:25;;;;;;;;;;;;;;;4.60;100.00;100276.25;4990843;28;19926;-90
2022/09/20 14:05:53;;;;;;;;;;;;;;;4.65;100.00;100273.56;4992502;28;19922;-86
2022/09/20 14:08:23;;;;;;;;;;;;;;;4.60;100.00;100276.25;5004285;28;20045;-93
2022/09/20 14:10:59;;;;;;;;;;;;;;;4.70;100.00;100267.38;4987913;28;20403;-88
2022/09/20 14:13:53;;;;;;;;;;;;;;;4.93;100.00;100263.63;5084641;27;19928;-88
2022/09/20 14:16:20;;;;;;;;;;;;;;;4.89;100.00;100272.44;5074896;28;20010;-88
2022/09/20 14:18:48;;;;;;;;;;;;;;;4.69;100.00;100270.00;5110636;28;19924;-88
2022/09/20 14:21:20;;;;;;;;;;;;;;;4.65;100.00;100265.69;5077206;28;20000;-89
2022/09/20 14:23:59;;;;;;;;;;;;;;;4.64;100.00;100256.97;5077075;28;19927;-88
2022/09/20 14:26:29;;;;;;;;;;;;;;;4.68;100.00;100263.91;5073555;28;19938;-87
2022/09/20 14:28:54;;;;;;;;;;;;;;;4.68;100.00;100257.78;5076255;28;20345;-86
2022/09/20 14:31:22;;;;;;;;;;;;;;;4.58;100.00;100258.75;5077387;28;19920;-88
2022/09/20 14:33:50;;;;;;;;;;;;;;;4.60;100.00;100265.75;5078992;28;19923;-87
2022/09/20 14:36:18;;;;;;;;;;;;;;;4.58;100.00;100266.63;5077356;28;19916;-87
2022/09/20 14:38:45;;;;;;;;;;;;;;;4.63;100.00;100257.84;5076958;28;19958;-90
2022/09/20 14:41:11;;;;;;;;;;;;;;;4.57;100.00;100262.28;5077445;28;19917;-90
2022/09/20 14:43:37;;;;;;;;;;;;;;;4.58;100.00;100251.78;5111161;28;19924;-91
2022/09/20 14:46:14;;;;;;;;;;;;;;;4.57;100.00;100260.53;5076389;28;20329;-89
2022/09/20 14:48:44;;;;;;;;;;;;;;;4.60;100.00;100252.63;5077150;28;19985;-87
2022/09/20 14:51:17;;;;;;;;;;;;;;;4.62;100.00;100252.59;5077073;28;19916;-88
2022/09/20 14:53:44;;;;;;;;;;;;;;;4.52;100.00;100257.94;5110154;28;19982;-87
2022/09/20 14:56:10;;;;;;;;;;;;;;;4.66;100.00;100254.28;5080404;28;19923;-87
2022/09/20 14:58:54;;;;;;;;;;;;;;;4.60;100.00;100257.00;5072659;28;19920;-87
2022/09/20 15:01:23;;;;;;;;;;;;;;;4.50;100.00;100262.34;5072901;28;20449;-85
2022/09/20 15:03:50;;;;;;;;;;;;;;;4.59;100.00;100253.50;5075140;28;20011;-87
2022/09/20 15:06:15;;;;;;;;;;;;;;;4.58;100.00;100267.53;5075001;28;19924;-87
2022/09/20 15:08:41;;;;;;;;;;;;;;;4.57;100.00;100268.41;5077698;28;19920;-89
2022/09/20 15:11:10;;;;;;;;;;;;;;;4.53;100.00;100264.94;5073454;28;19924;-85
2022/09/20 15:13:35;;;;;;;;;;;;;;;4.57;100.00;100260.53;5075963;28;20272;-86
2022/09/20 15:16:00;;;;;;;;;;;;;;;4.60;100.00;100270.13;5107169;28;19928;-85
2022/09/20 15:18:28;;;;;;;;;;;;;;;4.64;100.00;100261.31;5077126;28;19925;-86
2022/09/20 15:20:53;;;;;;;;;;;;;;;4.68;100.00;100260.41;5077976;28;21085;-86
2022/09/20 15:23:19;;;;;;;;;;;;;;;4.65;100.00;100260.44;5105798;28;20039;-86
2022/09/20 15:25:48;;;;;;;;;;;;;;;4.62;100.00;100269.22;5062349;28;20397;-86
2022/09/20 15:28:17;;;;;;;;;;;;;;;4.60;100.00;100254.38;5063140;28;19927;-86
2022/09/20 15:30:43;;;;;;;;;;;;;;;4.58;100.00;100269.25;5064921;28;19947;-89
2022/09/20 15:33:09;;;;;;;;;;;;;;;4.70;100.00;100259.50;5063868;28;19920;-85
2022/09/20 15:35:34;;;;;;;;;;;;;;;4.68;100.00;100268.28;5064837;28;20329;-88
2022/09/20 15:38:00;;;;;;;;;;;;;;;4.59;100.00;100263.13;5064644;28;20073;-87
2022/09/20 15:40:25;;;;;;;;;;;;;;;4.66;100.00;100262.16;5062301;28;19920;-90
2022/09/20 15:42:54;;;;;;;;;;;;;;;4.59;100.00;100265.75;5091630;28;19939;-86
2022/09/20 15:45:20;;;;;;;;;;;;;;;4.51;100.00;100271.94;5063116;28;19964;-86
2022/09/20 15:47:45;;;;;;;;;;;;;;;4.50;100.00;100270.22;5063489;28;20466;-85
2022/09/20 15:50:10;;;;;;;;;;;;;;;4.54;100.00;100269.28;5063228;28;19924;-88
2022/09/20 15:52:38;;;;;;;;;;;;;;;4.67;100.00;100266.53;5061779;28;19920;-89
2022/09/20 15:55:04;;;;;;;;;;;;;;;4.67;100.00;100266.53;5061477;28;19921;-85
2022/09/20 15:57:30;;;;;;;;;;;;;;;4.66;100.00;100275.28;5057512;28;20646;-87
2022/09/20 15:59:56;;;;;;;;;;;;;;;4.65;100.00;100273.56;5063284;28;20261;-87
2022/09/20 16:02:22;;;;;;;;;;;;;;;4.65;100.00;100263.94;5057436;28;19921;-87
2022/09/20 16:04:49;;;;;;;;;;;;;;;4.69;100.00;100270.00;5095291;28;20390;-87
2022/09/20 16:07:16;;;;;;;;;;;;;;;4.67;100.00;100271.78;5062125;28;19921;-88
2022/09/20 16:09:41;;;;;;;;;;;;;;;4.73;100.00;100267.34;5061122;28;20291;-88
2022/09/20 16:12:08;;;;;;;;;;;;;;;4.72;100.00;100269.97;5063637;28;19927;-89
2022/09/20 16:14:33;;;;;;;;;;;;;;;4.68;100.00;100273.53;5063822;28;20015;-87
2022/09/20 16:16:58;;;;;;;;;;;;;;;4.67;100.00;100266.53;5062121;28;20024;-84
2022/09/20 16:19:24;;;;;;;;;;;;;;;4.67;100.00;100270.03;5061583;28;20375;-89
2022/09/20 16:21:52;;;;;;;;;;;;;;;4.66;100.00;100275.28;5058787;28;19928;-85
2022/09/20 16:24:18;;;;;;;;;;;;;;;4.72;100.00;100273.50;5062711;28;20428;-85
2022/09/20 16:26:43;;;;;;;;;;;;;;;4.60;100.00;100275.38;5054986;28;19932;-88
2022/09/20 16:29:12;;;;;;;;;;;;;;;4.68;100.00;100284.91;5061538;28;19928;-87
2022/09/20 16:31:40;;;;;;;;;;;;;;;4.72;100.00;100272.59;5060903;28;19925;-89
2022/09/20 16:34:08;;;;;;;;;;;;;;;4.78;100.00;100275.16;5062909;28;19921;-85
2022/09/20 16:36:33;;;;;;;;;;;;;;;4.71;100.00;100276.13;5060944;28;20353;-84
2022/09/20 16:39:00;;;;;;;;;;;;;;;4.69;100.00;100286.66;5063344;28;19975;-84
2022/09/20 16:41:27;;;;;;;;;;;;;;;4.73;100.00;100283.09;5059544;28;19920;-90
2022/09/20 16:43:52;;;;;;;;;;;;;;;4.76;100.00;100276.09;5061559;28;19979;-89
2022/09/20 16:46:19;;;;;;;;;;;;;;;4.73;100.00;100276.97;5060051;28;19916;-84
2022/09/20 16:48:46;;;;;;;;;;;;;;;4.73;100.00;100288.34;5095537;28;19920;-84
2022/09/20 16:51:11;;;;;;;;;;;;;;;4.79;100.00;100290.03;5058510;28;19922;-87
2022/09/20 16:53:37;;;;;;;;;;;;;;;4.75;100.00;100296.22;5058994;28;19975;-87
2022/09/20 16:56:05;;;;;;;;;;;;;;;4.76;100.00;100286.59;5059685;28;19921;-87
2022/09/20 16:58:30;;;;;;;;;;;;;;;4.83;100.00;100290.88;5059516;28;20049;-87
2022/09/20 17:01:04;;;;;;;;;;;;;;;4.79;100.00;100297.06;5056992;28;19924;-89
2022/09/20 17:03:30;;;;;;;;;;;;;;;4.71;100.00;100297.13;5061331;28;19956;-87
2022/09/20 17:06:01;;;;;;;;;;;;;;;4.75;100.00;100298.81;5061743;28;19956;-87
2022/09/20 17:08:27;;;;;;;;;;;;;;;4.71;100.00;100291.88;5062119;28;20532;-89
2022/09/20 17:10:59;;;;;;;;;;;;;;;4.76;100.00;100284.81;5062227;28;19917;-90
2022/09/20 17:13:25;;;;;;;;;;;;;;;4.79;100.00;100290.03;5062279;28;20011;-85
2022/09/20 17:16:00;;;;;;;;;;;;;;;4.76;100.00;100290.06;5060423;28;20418;-88
2022/09/20 17:18:25;;;;;;;;;;;;;;;4.79;100.00;100295.28;5060300;28;19970;-89
2022/09/20 17:20:50;;;;;;;;;;;;;;;4.84;100.00;100303.97;5062626;28;19921;-87
2022/09/20 17:23:16;;;;;;;;;;;;;;;4.82;100.00;100303.16;5059478;28;19932;-89
2022/09/20 17:25:45;;;;;;;;;;;;;;;4.80;100.00;100304.03;5055070;28;20283;-89
2022/09/20 17:28:10;;;;;;;;;;;;;;;4.78;100.00;100306.69;5055673;28;20501;-87
2022/09/20 17:30:35;;;;;;;;;;;;;;;4.81;100.00;100314.53;5060231;28;19964;-87
2022/09/20 17:33:00;;;;;;;;;;;;;;;4.84;100.00;100308.38;5061759;28;20015;-90
2022/09/20 17:35:28;;;;;;;;;;;;;;;4.80;100.00;100315.41;5062909;28;19921;-89
2022/09/20 17:37:53;;;;;;;;;;;;;;;4.78;100.00;100311.94;5094430;28;19924;-86
2022/09/20 17:40:18;;;;;;;;;;;;;;;4.81;100.00;100327.66;5062266;28;19916;-89
2022/09/20 17:42:44;;;;;;;;;;;;;;;4.87;100.00;100327.59;5063079;28;19917;-87
2022/09/20 17:45:10;;;;;;;;;;;;;;;4.90;100.00;100327.56;5059382;28;19917;-88
2022/09/20 17:47:35;;;;;;;;;;;;;;;4.97;100.00;100330.97;5062056;28;19923;-88
2022/09/20 17:50:00;;;;;;;;;;;;;;;4.86;100.00;100324.97;5061658;28;19913;-86
2022/09/20 17:52:25;;;;;;;;;;;;;;;4.90;100.00;100321.44;5059858;28;19921;-89
2022/09/20 17:54:51;;;;;;;;;;;;;;;4.98;100.00;100323.97;5094562;28;19924;-86
2022/09/20 17:57:16;;;;;;;;;;;;;;;4.87;100.00;100327.59;5062063;28;20409;-87
2022/09/20 17:59:41;;;;;;;;;;;;;;;4.87;100.00;100338.09;5061091;28;19952;-86
2022/09/20 18:02:07;;;;;;;;;;;;;;;4.82;100.00;100339.91;5061330;28;19916;-88
2022/09/20 18:04:33;;;;;;;;;;;;;;;4.86;100.00;100331.09;5060908;28;20356;-90
2022/09/20 18:07:00;;;;;;;;;;;;;;;4.92;100.00;100335.41;5060998;28;19925;-84
2022/09/20 18:09:26;;;;;;;;;;;;;;;4.88;100.00;100337.22;5061047;28;20285;-90
2022/09/20 18:11:52;;;;;;;;;;;;;;;4.90;100.00;100338.06;5061491;28;19924;-89
2022/09/20 18:14:19;;;;;;;;;;;;;;;4.90;100.00;100348.56;5061201;28;20287;-87
2022/09/20 18:16:45;;;;;;;;;;;;;;;4.91;100.00;100352.94;5059595;28;20003;-91
2022/09/20 18:19:10;;;;;;;;;;;;;;;4.90;100.00;100348.56;5059574;28;19929;-88
2022/09/20 18:21:36;;;;;;;;;;;;;;;4.89;100.00;100351.22;5060352;28;19923;-88
2022/09/20 18:24:06;;;;;;;;;;;;;;;4.87;100.00;100353.84;5062449;28;19917;-93
2022/09/20 18:26:31;;;;;;;;;;;;;;;4.94;100.00;100359.03;5059338;28;19921;-91
2022/09/20 18:29:03;;;;;;;;;;;;;;;4.91;100.00;100358.19;5094055;28;19919;-87
2022/09/20 18:31:31;;;;;;;;;;;;;;;4.94;100.00;100364.28;5057978;28;19920;-88
2022/09/20 18:33:56;;;;;;;;;;;;;;;4.92;100.00;100359.06;5094147;28;20015;-89
2022/09/20 18:36:24;;;;;;;;;;;;;;;4.97;100.00;100361.63;5060555;28;20146;-86
2022/09/20 18:38:53;;;;;;;;;;;;;;;4.90;100.00;100364.31;5061076;28;19916;-88
2022/09/20 18:41:22;;;;;;;;;;;;;;;4.91;100.00;100363.44;5059965;28;20394;-90
2022/09/20 18:43:47;;;;;;;;;;;;;;;4.82;100.00;100371.41;5061332;28;20002;-92
2022/09/20 18:46:12;;;;;;;;;;;;;;;4.91;100.00;100370.44;5061204;28;19993;-89
2022/09/20 18:48:40;;;;;;;;;;;;;;;4.90;100.00;100368.72;5062479;28;19921;-90
2022/09/20 18:51:10;;;;;;;;;;;;;;;4.90;100.00;100366.94;5062579;28;20287;-90
2022/09/20 18:53:36;;;;;;;;;;;;;;;5.01;100.00;100376.47;5060170;28;19917;-90
2022/09/20 18:56:08;;;;;;;;;;;;;;;4.94;100.00;100378.28;5060904;28;20015;-91
2022/09/20 18:58:34;;;;;;;;;;;;;;;4.87;100.00;100380.09;5061386;28;19919;-89
2022/09/20 19:01:10;;;;;;;;;;;;;;;4.83;100.00;100385.41;5066840;28;20011;-90
2022/09/20 19:03:48;;;;;;;;;;;;;;;4.86;100.00;100380.13;5069072;28;19920;-87